Time;durP1;ratioP1;P1;durP2;ratioP2;P2;SDS_P1;SDS_P2;PMS_P1;PMS_P2;Temp;Humidity;BMP_temperature;BMP_pressure;BME280_temperature;BME280_humidity;BME280_pressure;Samples;Min_cycle;Max_cycle;Signal;HPM_P1;HPM_P2
2022/04/25 00:01:37;;;;;;;14.97;8.63;;;9.60;99.90;;;;;;4915601;29;20208;-76
2022/04/25 00:04:03;;;;;;;10.43;7.63;;;9.60;99.90;;;;;;4916388;29;20697;-77
2022/04/25 00:06:29;;;;;;;11.80;7.23;;;9.70;99.90;;;;;;4916241;29;20279;-80
2022/04/25 00:08:55;;;;;;;14.37;7.50;;;9.40;99.90;;;;;;4898664;29;20216;-77
2022/04/25 00:11:20;;;;;;;15.83;7.87;;;9.30;99.90;;;;;;4916523;29;20303;-77
2022/04/25 00:13:46;;;;;;;18.57;8.47;;;9.40;99.90;;;;;;4915434;29;20255;-78
2022/04/25 00:16:12;;;;;;;12.63;8.13;;;9.50;99.90;;;;;;4898386;29;20184;-77
2022/04/25 00:18:38;;;;;;;10.83;7.57;;;9.50;99.90;;;;;;4897854;29;20215;-77
2022/04/25 00:21:03;;;;;;;12.10;7.43;;;9.50;99.90;;;;;;4915649;29;20240;-77
2022/04/25 00:23:29;;;;;;;10.70;7.70;;;9.20;99.90;;;;;;4898522;29;20220;-78
2022/04/25 00:25:55;;;;;;;13.60;8.47;;;9.30;99.90;;;;;;4916435;29;20578;-77
2022/04/25 00:28:20;;;;;;;14.07;8.10;;;9.20;99.90;;;;;;4898941;29;20204;-78
2022/04/25 00:30:49;;;;;;;13.00;8.30;;;9.20;99.90;;;;;;4916489;29;20220;-78
2022/04/25 00:33:17;;;;;;;11.77;7.60;;;9.20;99.90;;;;;;4916283;29;20231;-79
2022/04/25 00:35:43;;;;;;;16.80;8.73;;;9.20;99.90;;;;;;4930761;29;20747;-78
2022/04/25 00:38:09;;;;;;;15.07;8.17;;;9.10;99.90;;;;;;4917557;29;20220;-78
2022/04/25 00:40:34;;;;;;;14.23;8.77;;;9.30;99.90;;;;;;4924789;29;20708;-78
2022/04/25 00:43:00;;;;;;;13.93;8.27;;;9.40;99.90;;;;;;4927166;29;20226;-78
2022/04/25 00:45:25;;;;;;;13.03;8.07;;;9.40;99.90;;;;;;4924363;29;20213;-78
2022/04/25 00:47:51;;;;;;;14.83;8.17;;;9.40;99.90;;;;;;4942151;29;20230;-78
2022/04/25 00:50:17;;;;;;;12.40;8.57;;;9.50;99.90;;;;;;4943286;29;20267;-78
2022/04/25 00:52:43;;;;;;;13.50;7.97;;;9.20;99.90;;;;;;4930835;29;20690;-78
2022/04/25 00:55:10;;;;;;;16.83;9.00;;;9.10;99.90;;;;;;4919747;29;20204;-77
2022/04/25 00:57:37;;;;;;;15.50;9.30;;;9.10;99.90;;;;;;4918898;29;20646;-78
2022/04/25 01:00:07;;;;;;;14.53;8.33;;;9.00;99.90;;;;;;4930375;29;20215;-78
2022/04/25 01:02:33;;;;;;;15.40;8.93;;;9.20;99.90;;;;;;4937810;29;20216;-78
2022/04/25 01:04:58;;;;;;;13.33;8.23;;;9.30;99.90;;;;;;4928548;29;20204;-77
2022/04/25 01:07:24;;;;;;;14.97;7.90;;;9.20;99.90;;;;;;4919992;29;20641;-77
2022/04/25 01:09:50;;;;;;;10.73;7.93;;;9.10;99.90;;;;;;4916709;29;20169;-77
2022/04/25 01:12:16;;;;;;;14.07;8.50;;;9.10;99.90;;;;;;4915522;29;20215;-77
2022/04/25 01:14:41;;;;;;;13.07;8.50;;;9.00;99.90;;;;;;4920505;29;20239;-77
2022/04/25 01:17:10;;;;;;;14.47;8.60;;;9.10;99.90;;;;;;4923298;29;20212;-78
2022/04/25 01:19:36;;;;;;;14.07;8.33;;;9.20;99.90;;;;;;4899596;29;20223;-77
2022/04/25 01:22:14;;;;;;;13.70;8.50;;;9.00;99.90;;;;;;4917988;29;20181;-76
2022/04/25 01:27:24;;;;;;;18.80;9.50;;;8.80;99.90;;;;;;4917751;29;20220;-77
2022/04/25 01:29:52;;;;;;;17.30;10.00;;;8.70;99.90;;;;;;4916506;29;20215;-77
2022/04/25 01:32:19;;;;;;;14.00;9.40;;;8.80;99.90;;;;;;4900049;29;20227;-77
2022/04/25 01:34:45;;;;;;;18.80;10.10;;;8.80;99.90;;;;;;4914758;29;20224;-77
2022/04/25 01:37:12;;;;;;;14.77;10.10;;;8.90;99.90;;;;;;4898245;29;20196;-78
2022/04/25 01:39:40;;;;;;;14.87;9.43;;;8.80;99.90;;;;;;4898976;29;20187;-77
2022/04/25 01:42:07;;;;;;;17.00;9.77;;;8.80;99.90;;;;;;4918150;29;20208;-77
2022/04/25 01:44:32;;;;;;;15.67;9.17;;;8.80;99.90;;;;;;4917648;29;20220;-77
2022/04/25 01:46:58;;;;;;;15.10;10.43;;;8.90;99.90;;;;;;4918125;29;20211;-76
2022/04/25 01:49:24;;;;;;;16.03;10.20;;;8.80;99.90;;;;;;4900123;29;20564;-77
2022/04/25 01:51:50;;;;;;;15.83;10.37;;;8.80;99.90;;;;;;4905400;29;20650;-77
2022/04/25 01:54:23;;;;;;;15.63;10.90;;;8.90;99.90;;;;;;4929604;29;20216;-77
2022/04/25 01:56:48;;;;;;;17.63;10.90;;;8.90;99.90;;;;;;4918028;29;20295;-77
2022/04/25 01:59:14;;;;;;;18.77;10.87;;;8.90;99.90;;;;;;4899994;29;20640;-78
2022/04/25 02:01:39;;;;;;;21.17;10.60;;;8.90;99.90;;;;;;4903168;29;20216;-77
2022/04/25 02:04:05;;;;;;;17.27;10.83;;;8.90;99.90;;;;;;4920093;29;20215;-77
2022/04/25 02:06:30;;;;;;;17.07;10.40;;;8.90;99.90;;;;;;4910969;29;20212;-77
2022/04/25 02:08:55;;;;;;;15.23;10.90;;;8.80;99.90;;;;;;4908575;29;20219;-77
2022/04/25 02:11:25;;;;;;;15.03;10.40;;;8.80;99.90;;;;;;4928542;29;20219;-76
2022/04/25 02:13:51;;;;;;;17.57;10.60;;;8.80;99.90;;;;;;4908083;29;20224;-78
2022/04/25 02:16:18;;;;;;;19.77;12.40;;;8.80;99.90;;;;;;4925063;29;20188;-77
2022/04/25 02:18:44;;;;;;;17.97;10.63;;;8.80;99.90;;;;;;4911441;29;20325;-77
2022/04/25 02:21:10;;;;;;;17.03;10.37;;;8.80;99.90;;;;;;4931071;29;20693;-77
2022/04/25 02:23:36;;;;;;;16.47;10.80;;;8.60;99.90;;;;;;4917242;29;20212;-78
2022/04/25 02:26:02;;;;;;;16.13;11.57;;;8.50;99.90;;;;;;4929659;29;20204;-77
2022/04/25 02:28:28;;;;;;;17.73;10.97;;;8.30;99.90;;;;;;4908386;29;20217;-78
2022/04/25 02:30:53;;;;;;;18.07;11.17;;;8.30;99.90;;;;;;4928967;29;20527;-78
2022/04/25 02:33:19;;;;;;;19.57;10.27;;;8.30;99.90;;;;;;4911307;29;20305;-77
2022/04/25 02:35:45;;;;;;;19.07;11.27;;;8.30;99.90;;;;;;4927999;29;20346;-78
2022/04/25 02:38:11;;;;;;;18.20;11.70;;;8.20;99.90;;;;;;4932414;29;20299;-77
2022/04/25 02:40:37;;;;;;;21.83;12.77;;;8.20;99.90;;;;;;4908906;29;20216;-77
2022/04/25 02:43:03;;;;;;;21.63;11.77;;;8.10;99.90;;;;;;4908300;29;20284;-78
2022/04/25 02:45:28;;;;;;;21.00;13.20;;;8.10;99.90;;;;;;4934798;29;20219;-76
2022/04/25 02:47:54;;;;;;;21.00;11.93;;;8.10;99.90;;;;;;4927301;29;20716;-78
2022/04/25 02:50:20;;;;;;;18.60;11.80;;;7.90;99.90;;;;;;4927353;29;20213;-77
2022/04/25 02:52:46;;;;;;;18.27;12.00;;;7.90;99.90;;;;;;4919768;29;20733;-77
2022/04/25 02:55:11;;;;;;;19.83;11.47;;;8.00;99.90;;;;;;4928764;29;20208;-77
2022/04/25 02:57:37;;;;;;;21.90;11.43;;;8.00;99.90;;;;;;4906544;29;20214;-77
2022/04/25 03:00:05;;;;;;;17.30;11.20;;;8.00;99.90;;;;;;4931672;29;20208;-77
2022/04/25 03:02:31;;;;;;;18.80;11.83;;;8.10;99.90;;;;;;4897743;29;20251;-77
2022/04/25 03:04:57;;;;;;;19.57;12.00;;;8.00;99.90;;;;;;4932961;29;20705;-77
2022/04/25 03:07:22;;;;;;;18.83;11.23;;;8.10;99.90;;;;;;4925657;29;20180;-76
2022/04/25 03:09:48;;;;;;;22.70;11.80;;;8.20;99.90;;;;;;4931525;29;20638;-77
2022/04/25 03:12:13;;;;;;;22.37;12.20;;;8.30;99.90;;;;;;4931320;29;20208;-77
2022/04/25 03:14:39;;;;;;;19.20;12.10;;;8.20;99.90;;;;;;4910992;29;20251;-76
2022/04/25 03:17:05;;;;;;;18.27;12.17;;;8.20;99.90;;;;;;4910582;29;20689;-76
2022/04/25 03:19:30;;;;;;;21.63;11.57;;;8.30;99.90;;;;;;4927765;29;20227;-77
2022/04/25 03:21:56;;;;;;;17.33;11.43;;;8.30;99.90;;;;;;4931891;29;20175;-77
2022/04/25 03:24:21;;;;;;;17.73;10.13;;;8.30;99.90;;;;;;4923627;29;20862;-75
2022/04/25 03:26:47;;;;;;;22.03;11.00;;;8.10;99.90;;;;;;4928491;29;20220;-78
2022/04/25 03:29:13;;;;;;;20.50;12.37;;;8.30;99.90;;;;;;4917238;29;20250;-77
2022/04/25 03:31:39;;;;;;;22.10;12.47;;;8.30;99.90;;;;;;4921375;29;20228;-77
2022/04/25 03:34:04;;;;;;;17.30;11.43;;;8.20;99.90;;;;;;4913382;29;20274;-76
2022/04/25 03:36:31;;;;;;;20.40;12.43;;;8.20;99.90;;;;;;4911992;29;20215;-77
2022/04/25 03:38:57;;;;;;;19.43;11.93;;;8.20;99.90;;;;;;4908526;29;20343;-77
2022/04/25 03:41:22;;;;;;;19.87;11.07;;;8.20;99.90;;;;;;4913418;29;20279;-77
2022/04/25 03:43:48;;;;;;;20.87;11.83;;;8.20;99.90;;;;;;4902067;29;20230;-77
2022/04/25 03:46:14;;;;;;;22.87;12.67;;;8.20;99.90;;;;;;4927166;29;20188;-77
2022/04/25 03:48:41;;;;;;;18.10;12.23;;;8.10;99.90;;;;;;4929051;29;20187;-77
2022/04/25 03:51:07;;;;;;;23.23;12.17;;;8.30;99.90;;;;;;4921858;29;20220;-77
2022/04/25 03:53:33;;;;;;;19.50;10.87;;;8.30;99.90;;;;;;4934202;29;20247;-77
2022/04/25 03:58:42;;;;;;;16.67;11.30;;;8.10;99.90;;;;;;4928478;29;20303;-77
2022/04/25 04:01:08;;;;;;;19.53;11.90;;;7.90;99.90;;;;;;4923928;29;20215;-77
2022/04/25 04:03:34;;;;;;;21.00;11.73;;;8.00;99.90;;;;;;4927804;29;20204;-77
2022/04/25 04:06:00;;;;;;;18.40;12.50;;;7.90;99.90;;;;;;4932193;29;20212;-78
2022/04/25 04:08:26;;;;;;;23.80;12.57;;;7.80;99.90;;;;;;4908452;29;20211;-77
2022/04/25 04:10:51;;;;;;;17.67;11.17;;;7.80;99.90;;;;;;4926392;29;20279;-77
2022/04/25 04:13:17;;;;;;;16.80;11.40;;;7.90;99.90;;;;;;4909205;29;20212;-77
2022/04/25 04:15:43;;;;;;;18.50;11.57;;;8.00;99.90;;;;;;4917510;29;20283;-77
2022/04/25 04:18:08;;;;;;;15.97;10.33;;;8.10;99.90;;;;;;4914858;29;20295;-77
2022/04/25 04:20:34;;;;;;;18.43;11.33;;;8.10;99.90;;;;;;4927765;29;20212;-77
2022/04/25 04:23:00;;;;;;;21.33;12.00;;;8.00;99.90;;;;;;4909037;29;20212;-77
2022/04/25 04:25:26;;;;;;;22.83;11.93;;;7.90;99.90;;;;;;4919394;29;20674;-78
2022/04/25 04:27:51;;;;;;;17.93;11.37;;;7.80;99.90;;;;;;4901520;29;20187;-77
2022/04/25 04:30:18;;;;;;;24.83;12.27;;;7.80;99.90;;;;;;4900621;29;20592;-77
2022/04/25 04:32:44;;;;;;;21.10;12.90;;;7.80;99.90;;;;;;4919663;29;20219;-77
2022/04/25 04:35:12;;;;;;;21.97;11.80;;;7.70;99.90;;;;;;4919748;29;20286;-77
2022/04/25 04:37:39;;;;;;;18.60;11.47;;;7.70;99.90;;;;;;4919795;29;20219;-77
2022/04/25 04:42:51;;;;;;;19.27;11.80;;;7.80;99.90;;;;;;4931733;23;20238;-71
2022/04/25 04:45:16;;;;;;;24.13;12.87;;;7.60;99.90;;;;;;4932117;29;20219;-72
2022/04/25 04:47:42;;;;;;;21.30;12.50;;;7.80;99.90;;;;;;4933609;29;20589;-72
2022/04/25 04:50:10;;;;;;;22.30;12.37;;;7.80;99.90;;;;;;4916297;29;20222;-72
2022/04/25 04:52:36;;;;;;;19.50;13.53;;;7.90;99.90;;;;;;4933774;29;20211;-74
2022/04/25 04:55:02;;;;;;;23.80;12.97;;;8.10;99.90;;;;;;4933931;29;20204;-74
2022/04/25 04:57:27;;;;;;;21.93;12.17;;;8.20;99.90;;;;;;4916457;29;20587;-74
2022/04/25 04:59:53;;;;;;;17.80;11.10;;;8.20;99.90;;;;;;4933218;29;20214;-74
2022/04/25 05:02:18;;;;;;;18.17;12.33;;;8.00;99.90;;;;;;4916628;29;20834;-73
2022/04/25 05:04:44;;;;;;;23.63;12.73;;;8.00;99.90;;;;;;4933532;29;20204;-74
2022/04/25 05:07:10;;;;;;;24.37;12.17;;;8.10;99.90;;;;;;4933601;29;20192;-74
2022/04/25 05:09:35;;;;;;;17.47;11.50;;;8.10;99.90;;;;;;4916285;29;20176;-73
2022/04/25 05:12:01;;;;;;;21.80;11.63;;;8.20;99.90;;;;;;4933510;29;20226;-73
2022/04/25 05:14:26;;;;;;;16.40;10.20;;;8.20;99.90;;;;;;4936429;29;20283;-73
2022/04/25 05:16:52;;;;;;;15.63;9.70;;;8.10;99.90;;;;;;4937642;29;20638;-73
2022/04/25 05:19:17;;;;;;;17.40;10.50;;;8.20;99.90;;;;;;4936882;29;20195;-74
2022/04/25 05:21:42;;;;;;;17.77;10.60;;;8.50;99.90;;;;;;4937751;29;20199;-72
2022/04/25 05:24:09;;;;;;;18.33;11.27;;;8.50;99.90;;;;;;4937252;29;20783;-72
2022/04/25 05:26:34;;;;;;;20.43;11.23;;;8.60;99.90;;;;;;4937020;29;20646;-73
2022/04/25 05:29:00;;;;;;;19.40;11.53;;;8.70;99.90;;;;;;4936817;29;20222;-73
2022/04/25 05:31:25;;;;;;;19.13;10.93;;;8.50;99.90;;;;;;4937233;29;20661;-73
2022/04/25 05:33:51;;;;;;;19.43;11.23;;;8.60;99.90;;;;;;4937612;29;20278;-73
2022/04/25 05:36:16;;;;;;;17.70;10.40;;;8.70;99.90;;;;;;4937297;29;20591;-73
2022/04/25 05:38:42;;;;;;;19.07;10.10;;;8.80;99.90;;;;;;4936346;29;20330;-73
2022/04/25 05:41:09;;;;;;;15.70;10.90;;;8.80;99.90;;;;;;4936979;29;20219;-73
2022/04/25 05:43:36;;;;;;;16.87;10.43;;;8.60;99.90;;;;;;4919556;29;20230;-73
2022/04/25 05:46:02;;;;;;;14.77;10.17;;;8.40;99.90;;;;;;4919999;29;20195;-74
2022/04/25 05:53:56;;;;;;;17.00;9.83;;;8.70;99.90;;;;;;4936478;29;20234;-75
2022/04/25 05:56:22;;;;;;;20.37;9.77;;;8.80;99.90;;;;;;4951549;28;20843;-74
2022/04/25 05:58:47;;;;;;;15.60;8.67;;;8.80;99.90;;;;;;4936056;29;20211;-73
2022/04/25 06:01:13;;;;;;;14.63;8.10;;;8.80;99.90;;;;;;4936616;29;20183;-75
2022/04/25 06:03:38;;;;;;;13.60;7.90;;;8.90;99.90;;;;;;4937364;29;20192;-74
2022/04/25 06:06:04;;;;;;;12.33;7.53;;;8.70;99.90;;;;;;4936476;29;20219;-74
2022/04/25 06:08:29;;;;;;;15.67;7.30;;;8.90;99.90;;;;;;4918588;29;20223;-73
2022/04/25 06:10:55;;;;;;;11.67;7.30;;;9.10;99.90;;;;;;4936657;29;20294;-73
2022/04/25 06:13:20;;;;;;;11.20;6.70;;;9.10;99.90;;;;;;4936259;29;20214;-74
2022/04/25 06:15:46;;;;;;;9.13;6.40;;;9.30;99.90;;;;;;4919731;29;20212;-73
2022/04/25 06:18:11;;;;;;;10.80;6.60;;;9.30;99.90;;;;;;4935849;29;20596;-73
2022/04/25 06:20:37;;;;;;;10.10;6.63;;;9.20;99.90;;;;;;4919027;29;20220;-74
2022/04/25 06:23:02;;;;;;;11.23;6.80;;;9.00;99.90;;;;;;4919300;29;20263;-73
2022/04/25 06:25:29;;;;;;;9.20;6.17;;;9.30;99.90;;;;;;4937029;29;20226;-73
2022/04/25 06:27:57;;;;;;;9.80;5.97;;;9.60;99.90;;;;;;4937805;29;20175;-73
2022/04/25 06:30:28;;;;;;;9.53;6.33;;;9.80;99.90;;;;;;4918780;29;20210;-74
2022/04/25 06:32:54;;;;;;;10.80;6.17;;;9.80;99.90;;;;;;4936484;28;20208;-74
2022/04/25 06:35:22;;;;;;;11.93;7.10;;;9.70;99.90;;;;;;4918918;29;20231;-76
2022/04/25 06:37:48;;;;;;;8.30;6.10;;;9.80;99.90;;;;;;4935758;28;20211;-71
2022/04/25 06:40:14;;;;;;;10.33;5.90;;;9.90;99.90;;;;;;4935745;29;20188;-72
2022/04/25 06:42:39;;;;;;;10.97;6.23;;;9.90;99.90;;;;;;4919442;29;20198;-72
2022/04/25 06:45:05;;;;;;;13.27;5.60;;;10.00;99.90;;;;;;4936058;28;20215;-74
2022/04/25 06:47:31;;;;;;;9.63;6.00;;;10.10;99.90;;;;;;4935824;29;20744;-72
2022/04/25 06:49:57;;;;;;;12.03;6.53;;;10.00;99.90;;;;;;4918153;29;20712;-74
2022/04/25 06:52:23;;;;;;;10.70;5.47;;;9.60;99.90;;;;;;4918863;29;20180;-72
2022/04/25 06:54:49;;;;;;;10.03;6.10;;;9.70;99.90;;;;;;4918863;29;20211;-71
2022/04/25 06:57:15;;;;;;;10.60;6.20;;;9.80;99.90;;;;;;4918915;29;20566;-73
2022/04/25 06:59:40;;;;;;;13.90;6.50;;;9.80;99.90;;;;;;4918012;29;20349;-72
2022/04/25 07:02:11;;;;;;;12.07;6.63;;;9.90;99.90;;;;;;4926699;29;20203;-75
2022/04/25 07:04:40;;;;;;;11.00;6.90;;;10.10;99.90;;;;;;4918366;29;20597;-74
2022/04/25 07:07:05;;;;;;;12.30;6.60;;;10.10;99.90;;;;;;4918877;29;20176;-74
2022/04/25 07:09:31;;;;;;;11.87;5.93;;;10.20;99.90;;;;;;4934966;29;20263;-73
2022/04/25 07:11:56;;;;;;;9.93;6.80;;;10.10;99.90;;;;;;4934432;29;20211;-73
2022/04/25 07:14:23;;;;;;;11.53;6.57;;;10.10;99.90;;;;;;4935100;29;20241;-73
2022/04/25 07:16:49;;;;;;;12.17;6.13;;;10.30;99.90;;;;;;4918645;29;20207;-73
2022/04/25 07:19:15;;;;;;;9.37;5.50;;;10.20;99.90;;;;;;4934787;29;20703;-74
2022/04/25 07:29:54;;;;;;;10.67;6.10;;;10.30;99.90;;;;;;4934664;29;20247;-72
2022/04/25 07:32:20;;;;;;;10.93;6.33;;;10.30;99.90;;;;;;4935262;29;20688;-72
2022/04/25 07:34:47;;;;;;;9.43;6.03;;;10.40;99.90;;;;;;4917809;29;20227;-73
2022/04/25 07:37:13;;;;;;;11.37;6.77;;;10.30;99.90;;;;;;4933960;29;20183;-73
2022/04/25 07:39:39;;;;;;;10.90;6.33;;;9.90;99.90;;;;;;4934620;29;20198;-72
2022/04/25 07:42:04;;;;;;;11.03;6.43;;;10.00;99.90;;;;;;4935101;29;20207;-73
2022/04/25 07:44:31;;;;;;;11.87;6.57;;;10.00;99.90;;;;;;4934742;29;20661;-73
2022/04/25 07:46:56;;;;;;;9.77;5.67;;;10.10;99.90;;;;;;4934555;29;20216;-73
2022/04/25 07:49:22;;;;;;;8.20;5.97;;;10.20;99.90;;;;;;4916852;29;20183;-72
2022/04/25 07:51:50;;;;;;;13.13;6.07;;;10.20;99.90;;;;;;4918036;29;20180;-73
2022/04/25 07:54:18;;;;;;;9.07;5.57;;;10.30;99.90;;;;;;4934783;29;20211;-72
2022/04/25 07:56:44;;;;;;;8.77;6.00;;;10.50;99.90;;;;;;4917465;29;20630;-72
2022/04/25 07:59:10;;;;;;;10.67;6.47;;;10.60;99.90;;;;;;4916688;29;20208;-72
2022/04/25 08:01:36;;;;;;;11.77;6.50;;;10.60;99.90;;;;;;4934371;29;20234;-72
2022/04/25 08:04:02;;;;;;;10.10;5.53;;;10.80;99.90;;;;;;4934900;29;20215;-75
2022/04/25 08:06:27;;;;;;;9.77;5.57;;;10.80;99.90;;;;;;4934178;29;20219;-74
2022/04/25 08:08:55;;;;;;;8.63;5.83;;;10.90;99.90;;;;;;4934141;29;20226;-73
2022/04/25 08:11:21;;;;;;;9.10;5.40;;;11.00;99.90;;;;;;4934321;29;20743;-76
2022/04/25 08:19:16;;;;;;;9.37;5.30;;;11.00;99.90;;;;;;4932886;29;20191;-75
2022/04/25 08:21:42;;;;;;;8.97;4.70;;;11.10;99.90;;;;;;4934824;29;20176;-74
2022/04/25 08:24:08;;;;;;;8.70;5.60;;;11.00;99.90;;;;;;4934204;29;20597;-75
2022/04/25 08:26:34;;;;;;;10.70;5.60;;;10.60;99.90;;;;;;4929608;29;20221;-73
2022/04/25 08:29:00;;;;;;;5.93;4.87;;;10.70;99.90;;;;;;4943913;28;20226;-82
2022/04/25 08:31:29;;;;;;;9.67;5.47;;;11.10;99.90;;;;;;4917017;29;20654;-74
2022/04/25 08:33:56;;;;;;;10.27;5.30;;;11.40;99.90;;;;;;4934260;29;20224;-75
2022/04/25 08:36:22;;;;;;;10.07;5.43;;;11.80;99.90;;;;;;4917334;29;20255;-77
2022/04/25 08:38:48;;;;;;;7.37;4.93;;;11.50;99.90;;;;;;4939563;28;20221;-78
2022/04/25 08:41:16;;;;;;;6.60;4.50;;;11.50;99.90;;;;;;4936496;29;20701;-77
2022/04/25 08:43:42;;;;;;;5.80;4.27;;;11.80;99.90;;;;;;4916732;29;20622;-75
2022/04/25 08:46:11;;;;;;;6.77;4.77;;;12.70;99.90;;;;;;4917103;29;20180;-75
2022/04/25 08:48:40;;;;;;;6.50;3.90;;;13.20;99.90;;;;;;4933604;29;20184;-77
2022/04/25 08:51:06;;;;;;;8.63;5.53;;;13.20;99.90;;;;;;4934028;29;20250;-73
2022/04/25 08:53:34;;;;;;;7.03;4.00;;;13.30;99.90;;;;;;4916687;29;20247;-74
2022/04/25 08:56:02;;;;;;;8.53;4.53;;;13.60;99.90;;;;;;4933749;29;20258;-75
2022/04/25 08:58:31;;;;;;;5.80;4.40;;;13.70;99.90;;;;;;4932964;29;20263;-76
2022/04/25 09:01:00;;;;;;;9.40;4.97;;;13.90;99.90;;;;;;4934622;29;20180;-78
2022/04/25 09:03:26;;;;;;;6.17;4.63;;;13.50;99.90;;;;;;4941116;28;20223;-77
2022/04/25 09:05:51;;;;;;;6.43;4.03;;;13.40;99.90;;;;;;4934711;29;20851;-73
2022/04/25 09:08:17;;;;;;;6.43;4.57;;;13.20;99.90;;;;;;4937081;28;20227;-78
2022/04/25 09:10:44;;;;;;;7.33;3.93;;;12.60;99.90;;;;;;4942397;29;20249;-76
2022/04/25 09:13:11;;;;;;;7.03;4.77;;;13.00;99.90;;;;;;4937526;29;20235;-78
2022/04/25 09:15:37;;;;;;;7.57;4.47;;;13.40;99.90;;;;;;4923840;29;20220;-78
2022/04/25 09:18:03;;;;;;;8.40;4.57;;;13.70;99.90;;;;;;4920458;29;20271;-75
2022/04/25 09:20:29;;;;;;;6.77;3.97;;;13.60;99.90;;;;;;4916069;29;20215;-74
2022/04/25 09:22:55;;;;;;;8.70;4.20;;;13.70;99.90;;;;;;4916438;29;20203;-75
2022/04/25 09:25:21;;;;;;;8.20;4.07;;;13.90;99.90;;;;;;4919508;29;20275;-78
2022/04/25 09:27:47;;;;;;;4.45;3.63;;;14.30;99.90;;;;;;4917612;29;20267;-76
2022/04/25 09:30:23;;;;;;;8.85;4.47;;;14.50;99.90;;;;;;4933867;29;20215;-75
2022/04/25 09:32:51;;;;;;;5.45;4.15;;;14.90;99.90;;;;;;4934237;29;20231;-78
2022/04/25 09:35:35;;;;;;;8.77;4.30;;;15.10;99.90;;;;;;4917328;29;20231;-76
2022/04/25 09:38:03;;;;;;;7.20;3.83;;;15.10;99.90;;;;;;4933134;29;20307;-75
2022/04/25 09:40:31;;;;;;;5.28;3.70;;;14.90;99.90;;;;;;4915182;29;20700;-74
2022/04/25 09:43:32;;;;;;;6.32;4.30;;;14.90;99.90;;;;;;4930281;29;20184;-75
2022/04/25 09:46:11;;;;;;;6.00;4.10;;;14.60;99.90;;;;;;4892283;29;20211;-75
2022/04/25 09:48:41;;;;;;;6.53;3.60;;;14.90;99.90;;;;;;4898475;29;20220;-78
2022/04/25 09:51:08;;;;;;;7.70;4.00;;;15.30;99.90;;;;;;4900898;29;20243;-75
2022/04/25 09:53:45;;;;;;;7.65;4.50;;;15.70;99.90;;;;;;4913629;29;20299;-76
2022/04/25 09:56:16;;;;;;;8.10;4.97;;;15.40;99.90;;;;;;4914092;29;20224;-75
2022/04/25 09:58:43;;;;;;;8.00;3.88;;;15.50;99.90;;;;;;4913754;29;20243;-75
2022/04/25 10:01:14;;;;;;;6.93;3.97;;;15.60;99.90;;;;;;4921386;29;20177;-75
2022/04/25 10:03:41;;;;;;;5.80;3.90;;;15.60;99.90;;;;;;4918173;29;20207;-73
2022/04/25 10:06:07;;;;;;;6.47;4.10;;;15.50;99.90;;;;;;4900858;29;20731;-74
2022/04/25 10:08:35;;;;;;;7.20;3.75;;;15.60;99.90;;;;;;4917413;29;20307;-74
2022/04/25 10:11:06;;;;;;;5.13;3.72;;;15.60;99.90;;;;;;4903450;29;20209;-74
2022/04/25 10:13:33;;;;;;;6.30;3.47;;;15.70;99.90;;;;;;4917989;29;20258;-74
2022/04/25 10:16:00;;;;;;;9.02;4.53;;;15.60;99.90;;;;;;4919597;29;20204;-74
2022/04/25 10:18:27;;;;;;;9.50;4.10;;;15.60;99.90;;;;;;4921081;29;20702;-75
2022/04/25 10:20:53;;;;;;;8.15;3.97;;;15.70;99.90;;;;;;4925038;29;20288;-74
2022/04/25 10:23:19;;;;;;;6.57;4.32;;;15.50;99.90;;;;;;4924822;29;20244;-75
2022/04/25 10:25:54;;;;;;;13.85;5.00;;;15.50;99.90;;;;;;4902042;29;20215;-75
2022/04/25 10:28:30;;;;;;;17.58;5.00;;;15.70;99.90;;;;;;4901641;29;20184;-75
2022/04/25 10:31:02;;;;;;;6.65;4.00;;;15.80;99.90;;;;;;4919331;29;20295;-74
2022/04/25 10:33:52;;;;;;;3.70;3.00;;;15.60;99.90;;;;;;4901379;29;20268;-74
2022/04/25 10:36:43;;;;;;;6.68;3.50;;;15.70;99.90;;;;;;4911692;29;20212;-77
2022/04/25 10:39:18;;;;;;;7.18;3.80;;;16.00;99.90;;;;;;4910795;29;20217;-74
2022/04/25 10:44:53;;;;;;;7.90;3.72;;;16.00;99.90;;;;;;4939163;29;20278;-79
2022/04/25 10:47:20;;;;;;;7.57;3.40;;;16.30;99.90;;;;;;4946014;29;20223;-78
2022/04/25 10:49:52;;;;;;;4.85;3.17;;;16.30;99.90;;;;;;4932829;29;20195;-79
2022/04/25 10:55:14;;;;;;;5.93;3.60;;;16.40;99.90;;;;;;4940045;29;20218;-77
2022/04/25 10:58:01;;;;;;;11.52;6.57;;;16.40;99.90;;;;;;4922833;29;20218;-75
2022/04/25 11:00:39;;;;;;;6.15;3.50;;;15.80;99.90;;;;;;4927931;29;20207;-75
2022/04/25 11:03:15;;;;;;;6.65;3.70;;;15.50;99.90;;;;;;4942752;28;20230;-76
2022/04/25 11:05:44;;;;;;;5.82;3.72;;;15.60;99.90;;;;;;4939330;29;20207;-77
2022/04/25 11:08:22;;;;;;;10.82;7.05;;;15.90;99.90;;;;;;4942541;29;20269;-77
2022/04/25 11:10:57;;;;;;;4.97;3.53;;;16.00;99.90;;;;;;4924814;29;20211;-80
2022/04/25 11:13:30;;;;;;;5.22;3.83;;;15.80;99.90;;;;;;4941881;29;20213;-79
2022/04/25 11:16:15;;;;;;;6.63;3.38;;;15.50;99.90;;;;;;4943792;29;20206;-76
2022/04/25 11:18:41;;;;;;;5.97;4.00;;;15.40;99.90;;;;;;4936770;29;20231;-76
2022/04/25 11:21:12;;;;;;;8.30;4.63;;;15.40;99.90;;;;;;4944774;29;20681;-78
2022/04/25 11:23:43;;;;;;;5.25;3.28;;;15.30;99.90;;;;;;4937453;29;20720;-78
2022/04/25 11:26:30;;;;;;;4.72;3.20;;;15.30;99.90;;;;;;4936377;29;20216;-74
2022/04/25 11:29:01;;;;;;;6.85;3.33;;;15.50;99.90;;;;;;4927864;29;20311;-76
2022/04/25 11:31:31;;;;;;;6.38;3.70;;;15.50;99.90;;;;;;4936027;28;20191;-75
2022/04/25 11:34:01;;;;;;;6.78;4.53;;;15.60;99.90;;;;;;4936651;29;20204;-76
2022/04/25 11:36:29;;;;;;;6.13;3.60;;;15.30;99.90;;;;;;4936800;29;20208;-75
2022/04/25 11:41:41;;;;;;;6.95;3.20;;;15.10;99.90;;;;;;4937251;29;20222;-75
2022/04/25 11:44:07;;;;;;;8.45;3.92;;;15.30;99.90;;;;;;4918875;29;20231;-75
2022/04/25 11:46:35;;;;;;;8.75;4.50;;;15.40;99.90;;;;;;4936271;29;20235;-76
2022/04/25 11:49:02;;;;;;;5.82;3.97;;;15.80;99.90;;;;;;4946396;29;20231;-76
2022/04/25 11:51:30;;;;;;;7.97;3.92;;;16.10;99.90;;;;;;4950605;28;20220;-81
2022/04/25 11:53:58;;;;;;;5.88;3.40;;;15.80;99.90;;;;;;4928500;29;20216;-80
2022/04/25 11:56:25;;;;;;;5.03;3.33;;;15.60;99.90;;;;;;4954459;28;20231;-78
2022/04/25 11:58:52;;;;;;;5.85;3.90;;;16.10;99.90;;;;;;4942432;29;20207;-78
2022/04/25 12:01:35;;;;;;;9.90;3.67;;;15.90;99.90;;;;;;4938885;29;20185;-77
2022/04/25 12:04:20;;;;;;;6.35;4.05;;;15.80;99.90;;;;;;4944524;29;20200;-78
2022/04/25 12:06:52;;;;;;;4.95;3.38;;;16.20;99.90;;;;;;4942934;29;20219;-77
2022/04/25 12:17:41;;;;;;;4.07;3.28;;;16.10;99.90;;;;;;4937041;29;20295;-77
2022/04/25 12:20:13;;;;;;;4.95;3.38;;;16.20;99.90;;;;;;4921347;29;20211;-78
2022/04/25 12:22:49;;;;;;;6.53;3.60;;;16.20;99.90;;;;;;4919840;29;20607;-76
2022/04/25 12:25:17;;;;;;;4.63;3.58;;;16.40;99.90;;;;;;4918254;29;20187;-74
2022/04/25 12:28:06;;;;;;;6.45;3.72;;;16.30;99.90;;;;;;4919445;29;20179;-74
2022/04/25 12:30:55;;;;;;;7.40;3.25;;;16.30;99.90;;;;;;4920769;29;20207;-76
2022/04/25 12:33:31;;;;;;;5.38;3.90;;;16.40;99.90;;;;;;4919925;29;20224;-78
2022/04/25 12:36:20;;;;;;;7.22;3.75;;;16.30;99.90;;;;;;4937565;29;20290;-77
2022/04/25 12:38:51;;;;;;;5.97;4.03;;;16.20;99.90;;;;;;4936063;29;20212;-78
2022/04/25 12:41:38;;;;;;;6.63;4.18;;;16.30;99.90;;;;;;4918225;29;20261;-76
2022/04/25 12:44:09;;;;;;;8.35;3.90;;;16.40;99.90;;;;;;4930756;29;20235;-75
2022/04/25 12:46:45;;;;;;;5.15;3.67;;;16.60;99.90;;;;;;4919923;29;20222;-78
2022/04/25 12:49:15;;;;;;;6.95;3.25;;;16.50;99.90;;;;;;4933755;29;20673;-77
2022/04/25 12:51:42;;;;;;;5.20;3.97;;;16.60;99.90;;;;;;4917847;29;20191;-78
2022/04/25 12:54:27;;;;;;;6.15;3.80;;;16.60;99.90;;;;;;4920120;29;20223;-78
2022/04/25 12:57:05;;;;;;;6.22;4.10;;;16.50;99.90;;;;;;4927673;29;20824;-73
2022/04/25 12:59:34;;;;;;;6.88;4.10;;;16.40;99.90;;;;;;4932779;29;20298;-73
2022/04/25 13:02:13;;;;;;;5.25;4.13;;;16.60;99.90;;;;;;4933747;29;20207;-72
2022/04/25 13:05:00;;;;;;;6.20;4.15;;;16.60;99.90;;;;;;4916711;29;20318;-75
2022/04/25 13:07:39;;;;;;;7.03;3.83;;;16.80;99.90;;;;;;4934098;29;20190;-75
2022/04/25 13:10:21;;;;;;;4.50;4.07;;;16.50;99.90;;;;;;4936775;29;20206;-77
2022/04/25 13:12:49;;;;;;;6.25;3.30;;;16.30;99.90;;;;;;4924828;29;20207;-75
2022/04/25 13:15:20;;;;;;;8.10;4.57;;;16.40;99.90;;;;;;4943822;29;20216;-79
2022/04/25 13:17:48;;;;;;;5.97;4.47;;;15.70;99.90;;;;;;4921178;29;20705;-74
2022/04/25 13:20:20;;;;;;;5.82;3.78;;;15.70;99.90;;;;;;4938310;29;20290;-77
2022/04/25 13:22:46;;;;;;;5.05;3.63;;;15.90;99.90;;;;;;4919796;29;20626;-75
2022/04/25 13:25:16;;;;;;;4.93;3.60;;;16.00;99.90;;;;;;4918647;29;20239;-75
2022/04/25 13:27:42;;;;;;;7.35;4.05;;;16.20;99.90;;;;;;4940159;29;20184;-76
2022/04/25 13:30:12;;;;;;;4.82;4.00;;;16.30;99.90;;;;;;4936462;29;20216;-77
2022/04/25 13:32:38;;;;;;;8.27;4.05;;;16.40;99.90;;;;;;4920910;29;20212;-77